createdAt,value
2023-03-17T00:01:51.457Z,0.80
2023-03-17T00:04:39.312Z,0.70
2023-03-17T00:07:27.568Z,0.60
2023-03-17T00:10:18.758Z,0.50
2023-03-17T00:13:07.002Z,0.50
2023-03-17T00:16:07.620Z,0.50
2023-03-17T00:18:56.814Z,0.60
2023-03-17T00:21:47.228Z,0.80
2023-03-17T00:24:34.687Z,0.90
2023-03-17T00:27:22.183Z,1.10
2023-03-17T00:30:11.730Z,1.20
2023-03-17T00:32:59.360Z,1.30
2023-03-17T00:35:46.959Z,1.30
2023-03-17T00:38:35.255Z,1.40
2023-03-17T00:41:23.835Z,1.50
2023-03-17T00:44:12.113Z,1.60
2023-03-17T00:47:00.671Z,1.70
2023-03-17T00:49:48.478Z,1.80
2023-03-17T00:52:35.967Z,1.80
2023-03-17T00:55:29.213Z,2.00
2023-03-17T00:58:32.782Z,2.10
2023-03-17T01:01:20.301Z,2.10
2023-03-17T01:04:12.277Z,2.10
2023-03-17T01:07:00.232Z,2.10
2023-03-17T01:09:47.675Z,2.00
2023-03-17T01:12:35.216Z,2.00
2023-03-17T01:15:25.631Z,1.90
2023-03-17T01:18:16.888Z,1.80
2023-03-17T01:21:05.129Z,1.70
2023-03-17T01:23:53.614Z,1.70
2023-03-17T01:26:41.706Z,1.50
2023-03-17T01:29:29.209Z,1.40
2023-03-17T01:32:16.958Z,1.40
2023-03-17T01:35:04.855Z,1.40
2023-03-17T01:37:52.980Z,1.40
2023-03-17T01:40:53.553Z,1.50
2023-03-17T01:43:41.745Z,1.50
2023-03-17T01:46:36.410Z,1.50
2023-03-17T01:49:35.226Z,1.50
2023-03-17T01:52:23.639Z,1.40
2023-03-17T01:55:17.286Z,1.50
2023-03-17T01:58:05.733Z,1.50
2023-03-17T02:00:53.278Z,1.50
2023-03-17T02:03:42.753Z,1.50
2023-03-17T02:06:32.124Z,1.60
2023-03-17T02:09:19.767Z,1.60
2023-03-17T02:12:09.399Z,1.60
2023-03-17T02:14:58.132Z,1.50
2023-03-17T02:17:45.650Z,1.50
2023-03-17T02:20:33.112Z,1.60
2023-03-17T02:23:23.537Z,1.70
2023-03-17T02:26:12.080Z,1.60
2023-03-17T02:28:59.554Z,1.60
2023-03-17T02:31:47.536Z,1.70
2023-03-17T02:34:35.301Z,1.70
2023-03-17T02:37:23.160Z,1.70
2023-03-17T02:40:13.770Z,1.70
2023-03-17T02:43:02.514Z,1.80
2023-03-17T02:45:50.066Z,1.70
2023-03-17T02:48:39.148Z,1.60
2023-03-17T02:51:27.487Z,1.50
2023-03-17T02:54:15.084Z,1.40
2023-03-17T02:57:02.596Z,1.40
2023-03-17T02:59:50.907Z,1.40
2023-03-17T03:02:39.281Z,1.40
2023-03-17T03:05:27.333Z,1.30
2023-03-17T03:08:15.054Z,1.40
2023-03-17T03:11:03.721Z,1.40
2023-03-17T03:13:51.191Z,1.30
2023-03-17T03:16:39.114Z,1.40
2023-03-17T03:19:26.701Z,1.30
2023-03-17T03:22:14.114Z,1.30
2023-03-17T03:25:01.588Z,1.30
2023-03-17T03:27:49.100Z,1.20
2023-03-17T03:30:38.166Z,1.30
2023-03-17T03:33:25.697Z,1.30
2023-03-17T03:36:13.538Z,1.30
2023-03-17T03:39:01.295Z,1.40
2023-03-17T03:41:48.869Z,1.30
2023-03-17T03:44:36.569Z,1.40
2023-03-17T03:47:23.981Z,1.30
2023-03-17T03:50:12.455Z,1.40
2023-03-17T03:52:59.938Z,1.50
2023-03-17T03:55:47.528Z,1.50
2023-03-17T03:58:36.125Z,1.40
2023-03-17T04:01:24.649Z,1.30
2023-03-17T04:04:12.123Z,1.20
2023-03-17T04:06:59.620Z,1.20
2023-03-17T04:09:49.330Z,1.20
2023-03-17T04:12:36.758Z,1.20
2023-03-17T04:15:24.573Z,1.30
2023-03-17T04:18:12.074Z,1.30
2023-03-17T04:20:59.808Z,1.40
2023-03-17T04:23:47.387Z,1.50
2023-03-17T04:26:34.968Z,1.60
2023-03-17T04:29:23.532Z,1.60
2023-03-17T04:32:15.076Z,1.60
2023-03-17T04:35:02.840Z,1.50
2023-03-17T04:37:51.700Z,1.50
2023-03-17T04:40:39.448Z,1.50
2023-03-17T04:43:27.471Z,1.40
2023-03-17T04:46:15.145Z,1.40
2023-03-17T04:49:02.808Z,1.40
2023-03-17T04:51:50.552Z,1.50
2023-03-17T04:54:38.152Z,1.50
2023-03-17T04:57:25.585Z,1.60
2023-03-17T05:00:15.730Z,1.60
2023-03-17T05:03:04.393Z,1.60
2023-03-17T05:05:53.206Z,1.70
2023-03-17T05:08:40.740Z,1.70
2023-03-17T05:11:28.172Z,1.80
2023-03-17T05:14:15.692Z,1.80
2023-03-17T05:17:03.504Z,1.80
2023-03-17T05:19:51.101Z,1.90
2023-03-17T05:22:38.645Z,1.90
2023-03-17T05:25:29.119Z,2.00
2023-03-17T05:28:17.004Z,2.00
2023-03-17T05:31:05.652Z,2.00
2023-03-17T05:33:53.700Z,2.00
2023-03-17T05:36:41.169Z,2.00
2023-03-17T05:39:28.710Z,2.00
2023-03-17T05:42:16.681Z,2.00
2023-03-17T05:45:05.822Z,2.00
2023-03-17T05:47:53.269Z,2.00
2023-03-17T05:50:41.922Z,2.00
2023-03-17T05:53:29.721Z,2.10
2023-03-17T05:56:17.280Z,2.10
2023-03-17T05:59:04.807Z,2.20
2023-03-17T06:01:52.235Z,2.10
2023-03-17T06:04:41.057Z,2.30
2023-03-17T06:07:38.037Z,2.30
2023-03-17T06:10:36.357Z,2.40
2023-03-17T06:13:25.231Z,2.50
2023-03-17T06:16:12.889Z,2.60
2023-03-17T06:19:00.471Z,2.80
2023-03-17T06:21:48.687Z,3.00
2023-03-17T06:24:36.487Z,3.00
2023-03-17T06:27:23.926Z,3.10
2023-03-17T06:30:12.515Z,3.00
2023-03-17T06:33:01.208Z,3.10
2023-03-17T06:35:48.805Z,3.10
2023-03-17T06:38:36.419Z,3.20
2023-03-17T06:41:24.102Z,3.20
2023-03-17T06:44:11.579Z,3.30
2023-03-17T06:46:59.110Z,3.30
2023-03-17T06:49:46.682Z,3.40
2023-03-17T06:52:34.191Z,3.50
2023-03-17T06:55:21.701Z,3.60
2023-03-17T06:58:10.917Z,3.50
2023-03-17T07:00:59.850Z,3.60
2023-03-17T07:03:47.266Z,3.60
2023-03-17T07:06:36.906Z,3.70
2023-03-17T07:09:24.376Z,3.70
2023-03-17T07:12:12.112Z,3.80
2023-03-17T07:14:59.758Z,4.00
2023-03-17T07:17:48.035Z,4.00
2023-03-17T07:20:35.877Z,4.10
2023-03-17T07:23:23.402Z,4.20
2023-03-17T07:26:11.194Z,4.40
2023-03-17T07:29:01.030Z,4.50
2023-03-17T07:31:49.546Z,4.70
2023-03-17T07:34:37.500Z,4.80
2023-03-17T07:37:25.169Z,5.00
2023-03-17T07:40:13.107Z,5.20
2023-03-17T07:43:00.796Z,5.30
2023-03-17T07:45:48.386Z,5.30
2023-03-17T07:48:40.832Z,5.30
2023-03-17T07:51:28.513Z,5.40
2023-03-17T07:54:16.016Z,5.40
2023-03-17T07:57:05.127Z,5.50
2023-03-17T07:59:52.668Z,5.50
2023-03-17T08:02:41.142Z,5.50
2023-03-17T08:05:28.868Z,5.60
2023-03-17T08:08:16.369Z,5.70
2023-03-17T08:11:05.633Z,5.80
2023-03-17T08:13:53.106Z,5.90
2023-03-17T08:16:41.410Z,6.10
2023-03-17T08:19:28.970Z,6.20
2023-03-17T08:22:16.483Z,6.40
2023-03-17T08:25:04.493Z,6.40
2023-03-17T08:27:52.160Z,6.50
2023-03-17T08:30:40.012Z,6.60
2023-03-17T08:33:27.860Z,6.70
2023-03-17T08:36:16.559Z,6.70
2023-03-17T08:39:05.669Z,6.80
2023-03-17T08:41:53.709Z,6.80
2023-03-17T08:44:43.988Z,6.90
2023-03-17T08:47:31.587Z,7.00
2023-03-17T08:50:23.412Z,7.10
2023-03-17T08:53:10.963Z,7.20
2023-03-17T08:55:58.450Z,7.30
2023-03-17T08:58:47.042Z,7.50
2023-03-17T09:01:35.466Z,7.60
2023-03-17T09:04:23.878Z,7.70
2023-03-17T09:07:11.452Z,7.80
2023-03-17T09:10:00.161Z,7.90
2023-03-17T09:12:47.587Z,8.00
2023-03-17T09:15:35.515Z,8.10
2023-03-17T09:18:23.087Z,8.30
2023-03-17T09:21:13.804Z,8.20
2023-03-17T09:24:02.694Z,8.40
2023-03-17T09:26:50.586Z,8.60
2023-03-17T09:29:38.310Z,8.70
2023-03-17T09:32:25.879Z,8.70
2023-03-17T09:35:13.505Z,8.80
2023-03-17T09:38:01.273Z,9.00
2023-03-17T09:41:19.948Z,9.20
2023-03-17T09:44:25.523Z,9.40
2023-03-17T09:47:58.023Z,9.50
2023-03-17T09:50:56.645Z,9.50
2023-03-17T09:54:02.517Z,9.70
2023-03-17T09:57:16.785Z,10.10
2023-03-17T10:00:16.686Z,10.30
2023-03-17T10:03:10.692Z,10.40
2023-03-17T10:06:41.597Z,10.40
2023-03-17T10:10:13.222Z,10.50
2023-03-17T10:13:16.089Z,10.60
2023-03-17T10:16:12.341Z,10.60
2023-03-17T10:19:13.013Z,10.60
2023-03-17T10:22:17.773Z,10.70
2023-03-17T10:25:18.345Z,10.90
2023-03-17T10:28:26.570Z,10.90
2023-03-17T10:31:35.840Z,10.90
2023-03-17T10:34:33.327Z,11.00
2023-03-17T10:37:25.066Z,11.20
2023-03-17T10:40:31.221Z,11.30
2023-03-17T10:43:21.837Z,11.50
2023-03-17T10:46:26.351Z,11.70
2023-03-17T10:49:23.322Z,11.90
2023-03-17T10:52:31.300Z,12.10
2023-03-17T10:55:29.500Z,12.10
2023-03-17T10:58:39.634Z,12.20
2023-03-17T11:01:47.459Z,12.30
2023-03-17T11:04:39.347Z,12.50
2023-03-17T11:07:39.136Z,12.40
2023-03-17T11:10:29.444Z,12.30
2023-03-17T11:13:17.886Z,12.40
2023-03-17T11:16:24.492Z,12.50
2023-03-17T11:19:18.659Z,12.60
2023-03-17T11:22:40.617Z,12.60
2023-03-17T11:25:32.168Z,12.70
2023-03-17T11:28:22.680Z,12.90
2023-03-17T11:31:32.303Z,13.00
2023-03-17T11:35:09.195Z,13.10
2023-03-17T11:38:17.103Z,13.00
2023-03-17T11:41:31.370Z,13.00
2023-03-17T11:44:40.661Z,13.10
2023-03-17T11:47:39.964Z,13.10
2023-03-17T11:50:45.186Z,13.30
2023-03-17T11:54:04.093Z,13.40
2023-03-17T11:57:03.335Z,13.30
2023-03-17T12:00:30.721Z,13.40
2023-03-17T12:03:42.601Z,13.40
2023-03-17T12:06:38.701Z,13.50
2023-03-17T12:09:43.652Z,13.50
2023-03-17T12:12:42.956Z,13.70
2023-03-17T12:15:54.309Z,13.80
2023-03-17T12:19:03.707Z,13.90
2023-03-17T12:22:22.836Z,14.00
2023-03-17T12:25:25.855Z,14.20
2023-03-17T12:28:27.294Z,14.30
2023-03-17T12:31:30.740Z,14.20
2023-03-17T12:34:57.035Z,14.30
2023-03-17T12:37:44.873Z,14.50
2023-03-17T12:41:25.240Z,14.50
2023-03-17T12:44:48.201Z,14.50
2023-03-17T12:47:47.778Z,14.40
2023-03-17T12:51:06.118Z,14.40
2023-03-17T12:53:54.576Z,14.30
2023-03-17T12:56:49.456Z,14.30
2023-03-17T12:59:37.482Z,14.40
2023-03-17T13:02:38.629Z,14.50
2023-03-17T13:05:33.446Z,14.50
2023-03-17T13:08:31.399Z,14.60
2023-03-17T13:11:26.161Z,14.60
2023-03-17T13:14:47.020Z,14.60
2023-03-17T13:17:35.085Z,14.60
2023-03-17T13:20:44.883Z,14.70
2023-03-17T13:24:19.764Z,14.70
2023-03-17T13:27:14.638Z,14.60
2023-03-17T13:30:25.852Z,14.60
2023-03-17T13:33:16.294Z,14.70
2023-03-17T13:37:00.652Z,14.70
2023-03-17T13:40:11.210Z,14.70
2023-03-17T13:43:09.610Z,14.60
2023-03-17T13:46:27.633Z,14.70
2023-03-17T13:49:24.204Z,14.70
2023-03-17T13:52:25.144Z,14.70
2023-03-17T13:55:18.560Z,14.80
2023-03-17T13:58:11.385Z,14.90
2023-03-17T14:01:10.733Z,15.00
2023-03-17T14:04:03.231Z,15.10
2023-03-17T14:06:56.874Z,15.20
2023-03-17T14:09:44.972Z,15.20
2023-03-17T14:13:16.204Z,15.30
2023-03-17T14:16:47.239Z,15.40
2023-03-17T14:19:34.931Z,15.40
2023-03-17T14:22:25.724Z,15.40
2023-03-17T14:25:40.303Z,15.50
2023-03-17T14:28:34.888Z,15.50
2023-03-17T14:31:29.415Z,15.50
2023-03-17T14:34:21.659Z,15.50
2023-03-17T14:37:12.680Z,15.50
2023-03-17T14:40:00.425Z,15.40
2023-03-17T14:42:48.347Z,15.30
2023-03-17T14:46:05.380Z,15.30
2023-03-17T14:49:03.578Z,15.20
2023-03-17T14:51:57.418Z,15.10
2023-03-17T14:54:45.423Z,15.10
2023-03-17T14:57:34.028Z,15.00
2023-03-17T15:01:09.101Z,15.10
2023-03-17T15:04:08.061Z,15.10
2023-03-17T15:07:07.663Z,15.10
2023-03-17T15:10:04.004Z,15.10
2023-03-17T15:13:02.615Z,15.10
2023-03-17T15:15:51.861Z,15.10
2023-03-17T15:18:39.630Z,15.10
2023-03-17T15:21:38.404Z,15.00
2023-03-17T15:24:41.868Z,15.00
2023-03-17T15:27:32.008Z,14.90
2023-03-17T15:30:20.004Z,14.90
2023-03-17T15:33:28.665Z,14.80
2023-03-17T15:36:31.888Z,14.80
2023-03-17T15:39:20.096Z,14.70
2023-03-17T15:42:08.199Z,14.60
2023-03-17T15:44:56.347Z,14.50
2023-03-17T15:47:47.115Z,14.50
2023-03-17T15:50:36.629Z,14.40
2023-03-17T15:53:24.239Z,14.30
2023-03-17T15:56:21.687Z,14.20
2023-03-17T15:59:09.642Z,14.20
2023-03-17T16:01:57.203Z,14.00
2023-03-17T16:04:44.741Z,14.00
2023-03-17T16:07:33.568Z,13.90
2023-03-17T16:10:26.349Z,13.90
2023-03-17T16:13:14.145Z,13.90
2023-03-17T16:16:05.685Z,13.80
2023-03-17T16:18:53.535Z,13.80
2023-03-17T16:21:41.501Z,13.70
2023-03-17T16:24:29.058Z,13.70
2023-03-17T16:27:16.512Z,13.70
2023-03-17T16:30:04.501Z,13.60
2023-03-17T16:32:53.512Z,13.50
2023-03-17T16:35:41.077Z,13.40
2023-03-17T16:38:32.823Z,13.30
2023-03-17T16:41:27.449Z,13.20
2023-03-17T16:44:19.150Z,13.10
2023-03-17T16:47:06.818Z,13.00
2023-03-17T16:49:54.253Z,13.00
2023-03-17T16:52:41.731Z,12.90
2023-03-17T16:55:30.168Z,12.80
2023-03-17T16:58:32.672Z,12.70
2023-03-17T17:01:25.090Z,12.60
2023-03-17T17:04:12.618Z,12.50
2023-03-17T17:07:00.189Z,12.40
2023-03-17T17:09:47.623Z,12.30
2023-03-17T17:12:35.137Z,12.30
2023-03-17T17:15:23.611Z,12.20
2023-03-17T17:18:20.602Z,12.20
2023-03-17T17:21:08.306Z,12.10
2023-03-17T17:23:56.414Z,11.90
2023-03-17T17:26:44.028Z,11.90
2023-03-17T17:29:32.467Z,11.80
2023-03-17T17:32:20.132Z,11.70
2023-03-17T17:35:08.682Z,11.60
2023-03-17T17:37:56.276Z,11.60
2023-03-17T17:40:43.867Z,11.50
2023-03-17T17:43:32.160Z,11.40
2023-03-17T17:46:22.566Z,11.30
2023-03-17T17:49:12.611Z,11.30
2023-03-17T17:52:00.235Z,11.30
2023-03-17T17:54:47.922Z,11.30
2023-03-17T17:57:36.287Z,11.20
2023-03-17T18:00:25.748Z,11.20
2023-03-17T18:03:13.733Z,11.20
2023-03-17T18:06:02.502Z,11.20
2023-03-17T18:08:50.362Z,11.20
2023-03-17T18:11:41.725Z,11.10
2023-03-17T18:14:29.364Z,11.10
2023-03-17T18:17:21.713Z,10.90
2023-03-17T18:20:13.784Z,10.80
2023-03-17T18:23:02.180Z,10.80
2023-03-17T18:25:49.812Z,10.70
2023-03-17T18:28:37.457Z,10.60
2023-03-17T18:31:27.521Z,10.50
2023-03-17T18:34:43.744Z,10.50
2023-03-17T18:37:32.602Z,10.40
2023-03-17T18:40:20.739Z,10.40
2023-03-17T18:43:08.230Z,10.40
2023-03-17T18:45:56.073Z,10.30
2023-03-17T18:48:44.114Z,10.30
2023-03-17T18:51:34.949Z,10.30
2023-03-17T18:54:23.500Z,10.20
2023-03-17T18:57:11.145Z,10.10
2023-03-17T18:59:58.742Z,9.90
2023-03-17T19:02:46.912Z,9.80
2023-03-17T19:05:41.109Z,9.60
2023-03-17T19:08:29.771Z,9.40
2023-03-17T19:11:21.320Z,9.30
2023-03-17T19:14:14.076Z,9.20
2023-03-17T19:17:01.905Z,9.20
2023-03-17T19:19:55.561Z,9.20
2023-03-17T19:22:43.065Z,9.20
2023-03-17T19:25:31.673Z,9.20
2023-03-17T19:28:22.021Z,9.10
2023-03-17T19:31:10.581Z,9.10
2023-03-17T19:33:58.333Z,9.00
2023-03-17T19:36:46.735Z,9.00
2023-03-17T19:39:34.337Z,9.10
2023-03-17T19:42:22.224Z,9.10
2023-03-17T19:45:10.724Z,9.10
2023-03-17T19:47:58.790Z,9.10
2023-03-17T19:50:46.304Z,9.20
2023-03-17T19:53:37.605Z,9.20
2023-03-17T19:56:25.233Z,9.20
2023-03-17T19:59:12.870Z,9.20
2023-03-17T20:02:00.677Z,9.20
2023-03-17T20:04:49.490Z,9.20
2023-03-17T20:07:38.148Z,9.10
2023-03-17T20:10:25.760Z,9.10
2023-03-17T20:13:13.327Z,9.10
2023-03-17T20:16:02.393Z,9.10
2023-03-17T20:18:50.124Z,9.10
2023-03-17T20:21:37.783Z,8.90
2023-03-17T20:24:27.162Z,8.70
2023-03-17T20:27:18.107Z,8.60
2023-03-17T20:30:08.427Z,8.50
2023-03-17T20:32:56.522Z,8.40
2023-03-17T20:35:47.589Z,8.30
2023-03-17T20:38:39.062Z,8.30
2023-03-17T20:41:27.950Z,8.10
2023-03-17T20:44:16.764Z,8.10
2023-03-17T20:47:04.528Z,8.10
2023-03-17T20:49:53.314Z,8.10
2023-03-17T20:52:42.043Z,8.10
2023-03-17T20:55:30.925Z,8.10
2023-03-17T20:58:20.062Z,8.10
2023-03-17T21:01:08.211Z,8.00
2023-03-17T21:03:56.054Z,7.90
2023-03-17T21:06:44.502Z,7.80
2023-03-17T21:09:32.104Z,7.70
2023-03-17T21:12:21.054Z,7.60
2023-03-17T21:15:10.301Z,7.60
2023-03-17T21:18:01.007Z,7.50
2023-03-17T21:20:50.272Z,7.50
2023-03-17T21:23:38.102Z,7.50
2023-03-17T21:26:26.418Z,7.60
2023-03-17T21:29:13.952Z,7.50
2023-03-17T21:32:02.841Z,7.50
2023-03-17T21:34:50.731Z,7.40
2023-03-17T21:37:38.712Z,7.40
2023-03-17T21:40:26.213Z,7.40
2023-03-17T21:43:14.920Z,7.50
2023-03-17T21:46:03.595Z,7.60
2023-03-17T21:48:52.539Z,7.70
2023-03-17T21:51:40.694Z,7.80
2023-03-17T21:54:28.817Z,7.90
2023-03-17T21:57:19.189Z,7.90
2023-03-17T22:00:09.743Z,7.90
2023-03-17T22:03:00.303Z,7.90
2023-03-17T22:05:51.068Z,7.90
2023-03-17T22:08:38.997Z,7.80
2023-03-17T22:11:27.341Z,7.80
2023-03-17T22:14:20.026Z,7.60
2023-03-17T22:17:08.594Z,7.60
2023-03-17T22:19:56.154Z,7.60
2023-03-17T22:22:43.602Z,7.60
2023-03-17T22:25:31.704Z,7.50
2023-03-17T22:28:19.673Z,7.50
2023-03-17T22:31:25.892Z,7.50
2023-03-17T22:34:16.280Z,7.50
2023-03-17T22:37:05.119Z,7.40
2023-03-17T22:39:53.164Z,7.40
2023-03-17T22:42:40.697Z,7.30
2023-03-17T22:45:28.768Z,7.20
2023-03-17T22:48:16.265Z,7.00
2023-03-17T22:51:11.309Z,6.80
2023-03-17T22:53:58.868Z,6.70
2023-03-17T22:56:46.492Z,6.60
2023-03-17T22:59:34.451Z,6.50
2023-03-17T23:02:22.223Z,6.50
2023-03-17T23:05:10.539Z,6.50
2023-03-17T23:07:58.431Z,6.40
2023-03-17T23:10:50.223Z,6.40
2023-03-17T23:13:39.926Z,6.40
2023-03-17T23:16:27.670Z,6.50
2023-03-17T23:19:16.856Z,6.50
2023-03-17T23:22:07.166Z,6.40
2023-03-17T23:24:55.020Z,6.40
2023-03-17T23:27:42.854Z,6.50
2023-03-17T23:30:31.865Z,6.40
2023-03-17T23:33:21.729Z,6.50
2023-03-17T23:36:09.919Z,6.40
2023-03-17T23:38:57.458Z,6.40
2023-03-17T23:41:45.132Z,6.30
2023-03-17T23:44:32.569Z,6.20
2023-03-17T23:47:23.666Z,6.10
2023-03-17T23:50:14.532Z,6.00
2023-03-17T23:53:02.742Z,6.00
2023-03-17T23:55:51.869Z,5.90
2023-03-17T23:58:43.381Z,5.90
